ACT        NSW        VIC        QLD        SA        WA        TAS        NT        INFO        CALC            by VK5ZD

  Atmospheric Gas Attenuation - ITU Rec 676-11   --------------- db/100km ---------------
Station Date Time Temp RH % AH g/m3 Dew Point Wind Direction Speed kph Gust kph Barometer mB Rainfall Since 9am 24GHz 47GHz 76GHz 122GHz 134GHz 241GHz
Alice Springs Airport 13 09:20 9.3 57 5.12 1.2 9 11 1026.5 0 12.3 22.1 28.8 74.7 59.3 200.6
Batchelor 13 09:20 23.4 23 4.84 1.1 26 32 1013.1 0 11.3 18.3 23.0 59.6 46.4 157.1
Borroloola 13 09:20 19.7 25 4.24 -0.9 26 30 1020.4 0 10.2 18.4 22.4 57.8 42.6 143.1
Bradshaw-Angallari Valley (Defence) 13 09:20 21.2 21 3.89 -2 19 26 1013.1 0 9.4 17.5 20.7 53.4 38.0 127.2
Bradshaw-Koolendong Valley 13 09:20 22.8 21 4.27 -0.7 0 0 1013.1 0 10.1 17.7 21.4 55.4 41.0 138.0
Cape Wessel 13 09:20 27.3 64 16.75 19.9 46 52 1014.3 0 36.0 35.0 64.9 171.7 185.5 644.2
Central Arnhem Plateau 13 09:20 20.1 25 4.35 -0.5 37 48 1018.5 0 10.4 18.5 22.5 58.3 43.4 146.1
Centre Island 13 09:20 19.9 40 6.87 5.9 43 48 1019.6 0 15.7 21.9 30.9 80.8 71.1 243.3
Channel Point 13 09:00 21.8 44 8.44 9 19 1015.9 0 18.9 23.6 35.6 93.2 87.2 300.2
Charles Point 13 09:20 24.3 34 7.52 7.8 17 22 1013.1 0 16.8 21.6 31.3 81.8 74.0 254.3
Croker Island Airport 13 09:20 25.4 39 9.18 10.4 20 28 1013.1 0 20.3 23.6 36.5 95.8 91.6 316.1
Daly Waters 13 09:20 16.4 31 4.33 -0.8 20 28 1013.1 0 10.5 19.0 23.3 60.4 45.0 151.2
Darwin Airport 13 09:20 24.2 28 6.16 4.5 24 28 1016.1 0 14.0 19.9 27.0 70.2 59.6 203.6
Delamere 13 09:20 18.1 25 3.86 -2.2 30 41 1019.9 0 9.4 18.3 21.6 55.7 39.4 131.7
Douglas River 13 09:20 22.6 22 4.42 -0.2 32 37 1018.1 0 10.5 18.1 22.1 57.1 42.8 144.3
Dum In Mirrie 13 09:20 24.3 34 7.52 7.4 13 15 1013.1 0 16.8 21.6 31.3 81.8 74.0 254.3
Elliott 13 09:00 14.2 38 4.64 0 52 1022.5 0 11.2 20.2 25.3 65.5 50.1 168.9
Gove Airport 13 09:20 26 52 12.66 15.4 32 41 1015.8 0 27.5 28.7 49.2 129.6 133.3 462.0
Groote Eylandt Airport 13 09:20 23.7 50 10.69 12.7 19 26 1017.4 0 23.5 26.4 43.0 113.1 112.2 388.0
Jabiru 13 09:20 24.1 29 6.34 5 30 35 1016.6 0 14.4 20.1 27.6 71.9 61.6 210.7
Jervois 13 09:20 10.6 52 5.08 1.2 17 19 1027.4 0 12.2 21.8 28.2 73.2 57.9 195.8
Kangaroo Flats (Defence) 13 09:20 24.5 23 5.15 2 15 20 1013.1 0 11.9 18.4 23.6 61.4 48.9 165.9
Lajamanu 13 09:20 14.7 32 4.03 -1.8 35 43 1023.2 0 9.9 19.3 23.1 59.7 43.0 144.1
Maningrida Airport 13 09:20 23 54 11.1 13.2 17 20 1015.1 0 24.4 27.2 44.8 118.0 118.2 408.8
Mcarthur River Mine 13 09:20 18.7 25 4 -1.7 33 43 1020.8 0 9.7 18.3 21.9 56.5 40.6 136.0
Mccluer Island 13 09:20 26.1 42 10.28 12.5 44 54 1014.3 0 22.5 25.0 40.1 105.5 103.7 358.5
Middle Point 13 09:20 25.3 28 6.55 5.5 19 24 1013.1 0 14.8 20.1 27.7 72.4 62.7 214.8
Milingimbi 13 09:20 24.8 47 10.7 13 19 32 1015.7 0 23.5 26.1 42.4 111.4 110.6 382.6
Mount Bundey North (Defence) 13 09:20 24.2 22 4.84 1.1 24 33 1013.1 0 11.3 18.1 22.8 59.1 45.9 155.6
Mount Bundey South (Defence) 13 09:20 24.1 21 4.59 0.4 19 24 1013.1 0 10.8 17.8 22.1 57.1 43.5 147.0
Murganella Airstrip 13 09:20 25.1 41 9.49 10.9 7 9 1013.1 0 20.9 24.1 37.7 99.0 95.5 329.9
Ngukurr Aws 13 09:20 21.4 24 4.5 0 19 24 1013.1 0 10.7 18.2 22.5 58.3 44.0 148.6
Noonamah 13 09:20 25 24 5.52 3 22 30 1013.1 0 12.7 18.8 24.6 64.0 52.3 178.1
Oenpelli Airport 13 09:20 25 34 7.83 8.4 15 19 1013.1 0 17.5 21.8 32.0 83.8 76.8 264.1
Pirlangimpi 13 09:20 25 47 10.82 12.9 9 15 1013.1 0 23.7 26.1 42.6 112.1 111.6 386.0
Point Fawcett 13 09:20 25.7 41 9.82 11.5 13 15 1015.2 0 21.6 24.5 38.7 101.6 98.8 341.5
Point Stuart 13 09:20 23.2 45 9.35 10.6 11 13 1015.9 0 20.7 24.5 38.2 100.3 96.4 332.6
Rabbit Flat 13 09:20 14.2 37 4.52 -0.3 30 39 1024.5 0 10.9 20.1 25.0 64.6 48.8 164.4
Tennant Creek 13 09:20 12.5 42 4.62 0 33 41 1024.4 0 11.2 20.6 25.8 66.9 51.0 171.9
Territory Grape Farm 13 09:20 10.6 56 5.47 2.2 28 32 1013.1 0 13.0 21.9 29.1 75.8 61.9 210.0
Tindal 13 09:20 21.5 21 3.96 -1.7 32 35 1019.1 0 9.5 17.7 21.0 54.2 38.8 129.9
Victoria River Downs 13 09:20 18.1 25 3.86 -2.2 1021.1 0 9.4 18.3 21.6 55.7 39.4 131.9
Wadeye (Port Keats) 13 09:20 24.4 18 4.01 -1.4 19 22 1016.7 0 9.6 17.2 20.4 52.6 37.9 127.0
Walungurru (Kintore) 13 09:20 11.9 43 4.55 -0.3 26 30 1024.8 0 11.1 20.6 25.8 66.8 50.6 170.4
Warruwi 13 09:20 25.1 50 11.57 14.2 24 30 1013.1 0 25.3 27.2 45.4 119.5 120.7 417.9
Wave Hill (Kalkarindji) 13 09:00 15.9 33 4.47 -0.3 46 1021 0 10.8 19.5 24.2 62.6 47.1 158.6
Yulara 13 09:20 9.1 56 4.97 0.8 15 17 1026.6 0 12.0 22.0 28.3 73.4 57.6 194.6

Last Refresh: 13-Jul-2020 09:31:15

The information presented on this site is sourced from the Bureau of Meteorology.  Copyright in all material sourced from the Bureau of Meteorology resides with the Commonwealth of Australia.